sensor_id;sensor_type;location;lat;lon;timestamp;temperature;humidity
68011;DHT22;54794;48.348;7.878;2024-02-04T00:09:49;10.10;68.00
68011;DHT22;54794;48.348;7.878;2024-02-04T00:21:01;10.00;68.00
68011;DHT22;54794;48.348;7.878;2024-02-04T00:24:21;10.10;68.00
68011;DHT22;54794;48.348;7.878;2024-02-04T00:27:50;10.10;68.00
68011;DHT22;54794;48.348;7.878;2024-02-04T00:31:01;10.20;68.70
68011;DHT22;54794;48.348;7.878;2024-02-04T00:34:43;10.40;68.40
68011;DHT22;54794;48.348;7.878;2024-02-04T00:38:17;10.10;68.20
68011;DHT22;54794;48.348;7.878;2024-02-04T00:41:08;10.10;68.10
68011;DHT22;54794;48.348;7.878;2024-02-04T00:44:34;10.10;68.10
68011;DHT22;54794;48.348;7.878;2024-02-04T00:47:30;10.20;68.30
68011;DHT22;54794;48.348;7.878;2024-02-04T00:50:39;10.10;68.20
68011;DHT22;54794;48.348;7.878;2024-02-04T00:58:22;10.10;68.40
68011;DHT22;54794;48.348;7.878;2024-02-04T01:02:04;10.30;68.40
68011;DHT22;54794;48.348;7.878;2024-02-04T01:05:23;10.20;68.20
68011;DHT22;54794;48.348;7.878;2024-02-04T01:11:33;10.20;68.20
68011;DHT22;54794;48.348;7.878;2024-02-04T01:14:56;10.20;68.10
68011;DHT22;54794;48.348;7.878;2024-02-04T01:22:51;10.20;68.00
68011;DHT22;54794;48.348;7.878;2024-02-04T01:30:55;10.10;67.90
68011;DHT22;54794;48.348;7.878;2024-02-04T01:38:43;10.00;67.80
68011;DHT22;54794;48.348;7.878;2024-02-04T01:41:49;10.00;67.80
68011;DHT22;54794;48.348;7.878;2024-02-04T01:45:30;10.10;67.90
68011;DHT22;54794;48.348;7.878;2024-02-04T01:48:36;10.00;67.80
68011;DHT22;54794;48.348;7.878;2024-02-04T01:52:05;9.90;67.90
68011;DHT22;54794;48.348;7.878;2024-02-04T01:59:02;10.00;68.00
68011;DHT22;54794;48.348;7.878;2024-02-04T02:02:25;9.80;67.90
68011;DHT22;54794;48.348;7.878;2024-02-04T02:05:07;9.60;67.90
68011;DHT22;54794;48.348;7.878;2024-02-04T02:11:47;9.70;68.10
68011;DHT22;54794;48.348;7.878;2024-02-04T02:15:25;9.70;68.20
68011;DHT22;54794;48.348;7.878;2024-02-04T02:18:45;9.80;68.20
68011;DHT22;54794;48.348;7.878;2024-02-04T02:26:58;9.60;68.30
68011;DHT22;54794;48.348;7.878;2024-02-04T02:30:23;9.60;68.40
68011;DHT22;54794;48.348;7.878;2024-02-04T02:34:06;9.60;68.40
68011;DHT22;54794;48.348;7.878;2024-02-04T02:38:08;9.60;68.40
68011;DHT22;54794;48.348;7.878;2024-02-04T02:42:03;9.60;68.40
68011;DHT22;54794;48.348;7.878;2024-02-04T02:45:31;9.70;68.50
68011;DHT22;54794;48.348;7.878;2024-02-04T02:48:58;9.60;68.40
68011;DHT22;54794;48.348;7.878;2024-02-04T02:52:50;9.60;68.50
68011;DHT22;54794;48.348;7.878;2024-02-04T03:02:32;9.60;68.60
68011;DHT22;54794;48.348;7.878;2024-02-04T03:06:07;10.10;68.90
68011;DHT22;54794;48.348;7.878;2024-02-04T03:09:46;9.70;68.70
68011;DHT22;54794;48.348;7.878;2024-02-04T03:12:59;9.70;68.60
68011;DHT22;54794;48.348;7.878;2024-02-04T03:15:52;9.90;68.70
68011;DHT22;54794;48.348;7.878;2024-02-04T03:19:42;9.70;68.60
68011;DHT22;54794;48.348;7.878;2024-02-04T03:22:47;9.70;68.60
68011;DHT22;54794;48.348;7.878;2024-02-04T03:29:52;9.70;68.60
68011;DHT22;54794;48.348;7.878;2024-02-04T03:37:07;9.60;68.60
68011;DHT22;54794;48.348;7.878;2024-02-04T03:43:54;10.00;68.90
68011;DHT22;54794;48.348;7.878;2024-02-04T03:47:34;10.10;68.90
68011;DHT22;54794;48.348;7.878;2024-02-04T03:51:16;9.90;68.80
68011;DHT22;54794;48.348;7.878;2024-02-04T03:54:16;9.70;68.70
68011;DHT22;54794;48.348;7.878;2024-02-04T03:57:42;9.90;68.70
68011;DHT22;54794;48.348;7.878;2024-02-04T04:00:54;9.60;68.60
68011;DHT22;54794;48.348;7.878;2024-02-04T04:04:05;9.70;68.70
68011;DHT22;54794;48.348;7.878;2024-02-04T04:06:54;9.70;68.70
68011;DHT22;54794;48.348;7.878;2024-02-04T04:09:56;9.70;68.60
68011;DHT22;54794;48.348;7.878;2024-02-04T04:13:21;9.80;68.70
68011;DHT22;54794;48.348;7.878;2024-02-04T04:16:30;9.80;68.80
68011;DHT22;54794;48.348;7.878;2024-02-04T04:22:54;9.80;68.60
68011;DHT22;54794;48.348;7.878;2024-02-04T04:25:49;9.80;68.60
68011;DHT22;54794;48.348;7.878;2024-02-04T04:28:50;10.30;69.00
68011;DHT22;54794;48.348;7.878;2024-02-04T04:32:10;9.70;68.60
68011;DHT22;54794;48.348;7.878;2024-02-04T04:39:24;9.80;68.70
68011;DHT22;54794;48.348;7.878;2024-02-04T04:43:15;9.80;68.50
68011;DHT22;54794;48.348;7.878;2024-02-04T04:46:43;9.80;68.50
68011;DHT22;54794;48.348;7.878;2024-02-04T04:49:35;9.70;68.40
68011;DHT22;54794;48.348;7.878;2024-02-04T04:53:00;9.70;68.40
68011;DHT22;54794;48.348;7.878;2024-02-04T04:56:24;9.80;68.50
68011;DHT22;54794;48.348;7.878;2024-02-04T04:59:14;9.80;68.50
68011;DHT22;54794;48.348;7.878;2024-02-04T05:02:42;9.70;68.50
68011;DHT22;54794;48.348;7.878;2024-02-04T05:08:34;9.40;68.40
68011;DHT22;54794;48.348;7.878;2024-02-04T05:11:24;9.80;68.60
68011;DHT22;54794;48.348;7.878;2024-02-04T06:41:14;9.80;68.70
68011;DHT22;54794;48.348;7.878;2024-02-04T06:47:47;9.70;68.70
68011;DHT22;54794;48.348;7.878;2024-02-04T06:50:38;9.70;68.60
68011;DHT22;54794;48.348;7.878;2024-02-04T06:53:21;9.70;68.60
68011;DHT22;54794;48.348;7.878;2024-02-04T06:56:24;9.70;68.60
68011;DHT22;54794;48.348;7.878;2024-02-04T06:59:15;10.20;68.90
68011;DHT22;54794;48.348;7.878;2024-02-04T07:02:21;9.60;68.70
68011;DHT22;54794;48.348;7.878;2024-02-04T07:05:08;9.70;68.70
68011;DHT22;54794;48.348;7.878;2024-02-04T07:08:00;9.70;68.80
68011;DHT22;54794;48.348;7.878;2024-02-04T07:10:31;9.50;68.60
68011;DHT22;54794;48.348;7.878;2024-02-04T07:13:30;9.60;68.80
68011;DHT22;54794;48.348;7.878;2024-02-04T07:16:28;9.70;68.80
68011;DHT22;54794;48.348;7.878;2024-02-04T07:19:27;9.50;68.70
68011;DHT22;54794;48.348;7.878;2024-02-04T07:22:24;10.10;69.00
68011;DHT22;54794;48.348;7.878;2024-02-04T07:28:43;9.70;69.00
68011;DHT22;54794;48.348;7.878;2024-02-04T07:31:34;9.60;68.80
68011;DHT22;54794;48.348;7.878;2024-02-04T07:34:24;9.70;68.90
68011;DHT22;54794;48.348;7.878;2024-02-04T07:37:15;9.70;68.80
68011;DHT22;54794;48.348;7.878;2024-02-04T07:39:54;9.70;69.00
68011;DHT22;54794;48.348;7.878;2024-02-04T07:42:44;10.00;69.10
68011;DHT22;54794;48.348;7.878;2024-02-04T07:45:28;10.00;69.10
68011;DHT22;54794;48.348;7.878;2024-02-04T07:48:13;9.70;68.90
68011;DHT22;54794;48.348;7.878;2024-02-04T07:50:48;9.70;68.90
68011;DHT22;54794;48.348;7.878;2024-02-04T07:53:41;9.70;69.00
68011;DHT22;54794;48.348;7.878;2024-02-04T07:56:44;9.70;69.00
68011;DHT22;54794;48.348;7.878;2024-02-04T07:59:32;9.70;69.10
68011;DHT22;54794;48.348;7.878;2024-02-04T08:02:03;9.80;69.10
68011;DHT22;54794;48.348;7.878;2024-02-04T08:04:37;9.80;68.90
68011;DHT22;54794;48.348;7.878;2024-02-04T08:07:48;9.80;68.90
68011;DHT22;54794;48.348;7.878;2024-02-04T08:10:25;9.80;68.90
68011;DHT22;54794;48.348;7.878;2024-02-04T08:12:57;9.70;69.00
68011;DHT22;54794;48.348;7.878;2024-02-04T08:15:24;10.00;69.00
68011;DHT22;54794;48.348;7.878;2024-02-04T08:17:54;10.50;69.30
68011;DHT22;54794;48.348;7.878;2024-02-04T08:20:24;9.90;69.00
68011;DHT22;54794;48.348;7.878;2024-02-04T08:23:08;9.90;68.80
68011;DHT22;54794;48.348;7.878;2024-02-04T08:26:10;9.90;68.80
68011;DHT22;54794;48.348;7.878;2024-02-04T08:32:02;10.00;68.90
68011;DHT22;54794;48.348;7.878;2024-02-04T08:34:47;10.00;68.90
68011;DHT22;54794;48.348;7.878;2024-02-04T08:37:52;10.00;68.90
68011;DHT22;54794;48.348;7.878;2024-02-04T08:40:58;10.50;69.30
68011;DHT22;54794;48.348;7.878;2024-02-04T08:56:34;10.10;68.80
68011;DHT22;54794;48.348;7.878;2024-02-04T09:00:21;10.30;69.00
68011;DHT22;54794;48.348;7.878;2024-02-04T09:02:58;10.30;68.90
68011;DHT22;54794;48.348;7.878;2024-02-04T09:09:20;10.40;68.90
68011;DHT22;54794;48.348;7.878;2024-02-04T09:12:11;10.40;68.80
68011;DHT22;54794;48.348;7.878;2024-02-04T09:15:07;10.50;68.60
68011;DHT22;54794;48.348;7.878;2024-02-04T09:17:35;10.60;68.70
68011;DHT22;54794;48.348;7.878;2024-02-04T09:20:31;10.50;68.60
68011;DHT22;54794;48.348;7.878;2024-02-04T09:22:59;10.60;68.40
68011;DHT22;54794;48.348;7.878;2024-02-04T09:25:51;10.70;68.50
68011;DHT22;54794;48.348;7.878;2024-02-04T09:29:16;10.80;68.60
68011;DHT22;54794;48.348;7.878;2024-02-04T09:32:25;10.70;68.50
68011;DHT22;54794;48.348;7.878;2024-02-04T09:35:40;10.80;68.40
68011;DHT22;54794;48.348;7.878;2024-02-04T09:38:36;10.90;68.30
68011;DHT22;54794;48.348;7.878;2024-02-04T09:44:54;10.80;68.10
68011;DHT22;54794;48.348;7.878;2024-02-04T09:47:42;10.60;68.10
68011;DHT22;54794;48.348;7.878;2024-02-04T09:53:16;10.90;68.30
68011;DHT22;54794;48.348;7.878;2024-02-04T09:55:57;11.20;68.90
68011;DHT22;54794;48.348;7.878;2024-02-04T09:58:40;11.10;68.30
68011;DHT22;54794;48.348;7.878;2024-02-04T10:01:39;11.40;68.00
68011;DHT22;54794;48.348;7.878;2024-02-04T10:04:41;11.40;68.20
68011;DHT22;54794;48.348;7.878;2024-02-04T10:07:32;11.00;67.70
68011;DHT22;54794;48.348;7.878;2024-02-04T10:10:14;11.20;67.80
68011;DHT22;54794;48.348;7.878;2024-02-04T10:13:07;11.10;67.80
68011;DHT22;54794;48.348;7.878;2024-02-04T10:15:53;11.10;68.10
68011;DHT22;54794;48.348;7.878;2024-02-04T10:18:46;11.10;68.00
68011;DHT22;54794;48.348;7.878;2024-02-04T10:21:22;11.30;67.90
68011;DHT22;54794;48.348;7.878;2024-02-04T10:24:15;11.20;68.00
68011;DHT22;54794;48.348;7.878;2024-02-04T10:26:52;11.40;68.00
68011;DHT22;54794;48.348;7.878;2024-02-04T10:30:00;11.40;68.10
68011;DHT22;54794;48.348;7.878;2024-02-04T10:32:55;11.50;68.00
68011;DHT22;54794;48.348;7.878;2024-02-04T10:35:48;11.70;68.40
68011;DHT22;54794;48.348;7.878;2024-02-04T10:38:53;11.50;68.30
68011;DHT22;54794;48.348;7.878;2024-02-04T10:41:37;11.60;68.40
68011;DHT22;54794;48.348;7.878;2024-02-04T10:51:55;11.80;67.70
68011;DHT22;54794;48.348;7.878;2024-02-04T10:55:01;12.30;68.00
68011;DHT22;54794;48.348;7.878;2024-02-04T10:57:57;12.00;67.80
68011;DHT22;54794;48.348;7.878;2024-02-04T11:01:08;12.00;67.30
68011;DHT22;54794;48.348;7.878;2024-02-04T11:04:32;12.80;67.40
68011;DHT22;54794;48.348;7.878;2024-02-04T11:07:25;12.20;67.50
68011;DHT22;54794;48.348;7.878;2024-02-04T11:10:21;12.30;67.40
68011;DHT22;54794;48.348;7.878;2024-02-04T11:13:17;12.30;67.30
68011;DHT22;54794;48.348;7.878;2024-02-04T11:16:41;12.60;67.30
68011;DHT22;54794;48.348;7.878;2024-02-04T11:20:15;12.60;67.00
68011;DHT22;54794;48.348;7.878;2024-02-04T11:27:25;12.40;66.70
68011;DHT22;54794;48.348;7.878;2024-02-04T11:30:03;12.40;66.60
68011;DHT22;54794;48.348;7.878;2024-02-04T11:32:48;12.50;66.90
68011;DHT22;54794;48.348;7.878;2024-02-04T11:35:57;12.50;66.90
68011;DHT22;54794;48.348;7.878;2024-02-04T11:39:51;12.90;66.90
68011;DHT22;54794;48.348;7.878;2024-02-04T11:43:14;12.60;66.30
68011;DHT22;54794;48.348;7.878;2024-02-04T11:46:59;12.60;66.50
68011;DHT22;54794;48.348;7.878;2024-02-04T11:50:05;12.70;66.60
68011;DHT22;54794;48.348;7.878;2024-02-04T11:53:28;12.70;66.30
68011;DHT22;54794;48.348;7.878;2024-02-04T12:00:59;12.70;66.30
68011;DHT22;54794;48.348;7.878;2024-02-04T12:04:27;12.90;65.60
68011;DHT22;54794;48.348;7.878;2024-02-04T12:07:25;12.80;66.00
68011;DHT22;54794;48.348;7.878;2024-02-04T12:10:35;13.00;66.40
68011;DHT22;54794;48.348;7.878;2024-02-04T12:13:52;12.90;66.30
68011;DHT22;54794;48.348;7.878;2024-02-04T12:16:36;13.00;66.10
68011;DHT22;54794;48.348;7.878;2024-02-04T12:19:46;13.30;66.70
68011;DHT22;54794;48.348;7.878;2024-02-04T12:22:52;13.10;66.20
68011;DHT22;54794;48.348;7.878;2024-02-04T12:26:25;13.10;65.90
68011;DHT22;54794;48.348;7.878;2024-02-04T12:29:55;13.20;65.70
68011;DHT22;54794;48.348;7.878;2024-02-04T12:33:01;13.20;65.10
68011;DHT22;54794;48.348;7.878;2024-02-04T12:40:23;13.10;65.10
68011;DHT22;54794;48.348;7.878;2024-02-04T12:43:16;13.20;65.60
68011;DHT22;54794;48.348;7.878;2024-02-04T12:49:58;13.20;65.10
68011;DHT22;54794;48.348;7.878;2024-02-04T12:53:14;13.20;65.30
68011;DHT22;54794;48.348;7.878;2024-02-04T12:55:58;13.40;64.90
68011;DHT22;54794;48.348;7.878;2024-02-04T12:59:32;13.50;65.40
68011;DHT22;54794;48.348;7.878;2024-02-04T13:02:37;13.20;64.90
68011;DHT22;54794;48.348;7.878;2024-02-04T13:05:24;12.90;65.20
68011;DHT22;54794;48.348;7.878;2024-02-04T13:08:18;13.40;65.40
68011;DHT22;54794;48.348;7.878;2024-02-04T13:11:06;13.50;65.30
68011;DHT22;54794;48.348;7.878;2024-02-04T13:14:18;13.50;65.70
68011;DHT22;54794;48.348;7.878;2024-02-04T13:17:15;13.30;65.80
68011;DHT22;54794;48.348;7.878;2024-02-04T13:27:36;13.40;65.70
68011;DHT22;54794;48.348;7.878;2024-02-04T13:34:25;13.10;65.40
68011;DHT22;54794;48.348;7.878;2024-02-04T13:37:20;13.10;65.60
68011;DHT22;54794;48.348;7.878;2024-02-04T13:40:39;13.00;65.60
68011;DHT22;54794;48.348;7.878;2024-02-04T13:44:06;13.10;65.50
68011;DHT22;54794;48.348;7.878;2024-02-04T13:47:28;13.10;65.70
68011;DHT22;54794;48.348;7.878;2024-02-04T13:51:05;13.10;66.10
68011;DHT22;54794;48.348;7.878;2024-02-04T14:02:19;13.00;65.30
68011;DHT22;54794;48.348;7.878;2024-02-04T14:05:03;13.00;65.70
68011;DHT22;54794;48.348;7.878;2024-02-04T14:11:25;13.10;65.80
68011;DHT22;54794;48.348;7.878;2024-02-04T14:14:22;13.10;65.60
68011;DHT22;54794;48.348;7.878;2024-02-04T14:18:18;13.10;65.40
68011;DHT22;54794;48.348;7.878;2024-02-04T14:21:06;13.00;65.10
68011;DHT22;54794;48.348;7.878;2024-02-04T14:23:46;13.10;65.30
68011;DHT22;54794;48.348;7.878;2024-02-04T14:27:27;13.00;65.40
68011;DHT22;54794;48.348;7.878;2024-02-04T14:30:27;12.90;65.20
68011;DHT22;54794;48.348;7.878;2024-02-04T14:33:31;12.90;65.40
68011;DHT22;54794;48.348;7.878;2024-02-04T14:36:44;13.00;65.50
68011;DHT22;54794;48.348;7.878;2024-02-04T14:39:44;13.00;65.70
68011;DHT22;54794;48.348;7.878;2024-02-04T14:42:44;12.90;65.50
68011;DHT22;54794;48.348;7.878;2024-02-04T14:46:01;12.90;65.40
68011;DHT22;54794;48.348;7.878;2024-02-04T14:48:45;13.30;65.70
68011;DHT22;54794;48.348;7.878;2024-02-04T14:51:50;12.90;65.50
68011;DHT22;54794;48.348;7.878;2024-02-04T14:54:19;12.70;65.50
68011;DHT22;54794;48.348;7.878;2024-02-04T14:57:05;13.10;65.80
68011;DHT22;54794;48.348;7.878;2024-02-04T14:59:51;13.00;65.60
68011;DHT22;54794;48.348;7.878;2024-02-04T15:05:27;12.90;65.60
68011;DHT22;54794;48.348;7.878;2024-02-04T15:08:07;12.90;65.60
68011;DHT22;54794;48.348;7.878;2024-02-04T15:10:55;12.90;65.50
68011;DHT22;54794;48.348;7.878;2024-02-04T15:13:30;12.80;65.50
68011;DHT22;54794;48.348;7.878;2024-02-04T15:16:16;12.80;65.50
68011;DHT22;54794;48.348;7.878;2024-02-04T15:18:58;12.70;65.40
68011;DHT22;54794;48.348;7.878;2024-02-04T15:21:35;12.80;65.50
68011;DHT22;54794;48.348;7.878;2024-02-04T15:24:14;12.80;65.50
68011;DHT22;54794;48.348;7.878;2024-02-04T15:26:51;12.80;65.50
68011;DHT22;54794;48.348;7.878;2024-02-04T15:29:36;12.80;65.50
68011;DHT22;54794;48.348;7.878;2024-02-04T15:32:17;12.80;65.50
68011;DHT22;54794;48.348;7.878;2024-02-04T15:35:01;12.80;65.50
68011;DHT22;54794;48.348;7.878;2024-02-04T15:37:28;12.70;65.50
68011;DHT22;54794;48.348;7.878;2024-02-04T15:39:55;13.10;65.70
68011;DHT22;54794;48.348;7.878;2024-02-04T15:42:30;12.80;65.50
68011;DHT22;54794;48.348;7.878;2024-02-04T15:45:03;12.90;65.60
68011;DHT22;54794;48.348;7.878;2024-02-04T15:47:39;12.70;66.00
68011;DHT22;54794;48.348;7.878;2024-02-04T15:50:24;13.00;65.70
68011;DHT22;54794;48.348;7.878;2024-02-04T15:52:57;12.70;65.50
68011;DHT22;54794;48.348;7.878;2024-02-04T15:55:33;12.70;65.50
68011;DHT22;54794;48.348;7.878;2024-02-04T15:58:04;12.70;65.40
68011;DHT22;54794;48.348;7.878;2024-02-04T16:00:33;12.80;65.50
68011;DHT22;54794;48.348;7.878;2024-02-04T16:03:08;12.70;65.60
68011;DHT22;54794;48.348;7.878;2024-02-04T16:05:36;12.70;65.50
68011;DHT22;54794;48.348;7.878;2024-02-04T16:08:04;12.60;65.50
68011;DHT22;54794;48.348;7.878;2024-02-04T16:10:34;12.60;65.50
68011;DHT22;54794;48.348;7.878;2024-02-04T16:13:01;12.60;65.40
68011;DHT22;54794;48.348;7.878;2024-02-04T16:15:31;12.60;65.40
68011;DHT22;54794;48.348;7.878;2024-02-04T16:18:00;12.60;65.40
68011;DHT22;54794;48.348;7.878;2024-02-04T16:20:27;12.60;65.50
68011;DHT22;54794;48.348;7.878;2024-02-04T16:22:55;12.60;65.40
68011;DHT22;54794;48.348;7.878;2024-02-04T16:25:27;12.50;65.40
68011;DHT22;54794;48.348;7.878;2024-02-04T16:28:04;12.50;65.40
68011;DHT22;54794;48.348;7.878;2024-02-04T16:30:40;12.50;65.50
68011;DHT22;54794;48.348;7.878;2024-02-04T16:33:07;12.70;65.60
68011;DHT22;54794;48.348;7.878;2024-02-04T16:35:40;12.50;65.40
68011;DHT22;54794;48.348;7.878;2024-02-04T16:38:10;12.40;65.40
68011;DHT22;54794;48.348;7.878;2024-02-04T16:40:40;12.80;65.70
68011;DHT22;54794;48.348;7.878;2024-02-04T16:43:07;12.60;65.60
68011;DHT22;54794;48.348;7.878;2024-02-04T16:45:39;12.40;65.50
68011;DHT22;54794;48.348;7.878;2024-02-04T16:48:09;12.40;65.60
68011;DHT22;54794;48.348;7.878;2024-02-04T16:50:45;12.30;65.40
68011;DHT22;54794;48.348;7.878;2024-02-04T16:53:25;12.50;65.50
68011;DHT22;54794;48.348;7.878;2024-02-04T16:55:52;12.70;65.60
68011;DHT22;54794;48.348;7.878;2024-02-04T16:58:22;12.20;65.40
68011;DHT22;54794;48.348;7.878;2024-02-04T17:09:08;12.10;65.30
68011;DHT22;54794;48.348;7.878;2024-02-04T17:11:47;11.90;65.10
68011;DHT22;54794;48.348;7.878;2024-02-04T17:17:59;12.10;65.30
68011;DHT22;54794;48.348;7.878;2024-02-04T17:25:30;12.00;65.40
68011;DHT22;54794;48.348;7.878;2024-02-04T17:31:45;12.00;65.50
68011;DHT22;54794;48.348;7.878;2024-02-04T17:35:26;11.80;65.50
68011;DHT22;54794;48.348;7.878;2024-02-04T17:46:50;11.20;65.30
68011;DHT22;54794;48.348;7.878;2024-02-04T17:54:01;11.60;65.70
68011;DHT22;54794;48.348;7.878;2024-02-04T17:56:33;11.40;65.60
68011;DHT22;54794;48.348;7.878;2024-02-04T17:59:32;10.80;65.30
68011;DHT22;54794;48.348;7.878;2024-02-04T18:06:16;11.40;65.80
68011;DHT22;54794;48.348;7.878;2024-02-04T18:09:01;11.40;65.80
68011;DHT22;54794;48.348;7.878;2024-02-04T18:12:21;11.40;65.90
68011;DHT22;54794;48.348;7.878;2024-02-04T18:15:02;11.30;65.80
68011;DHT22;54794;48.348;7.878;2024-02-04T18:17:44;11.30;65.80
68011;DHT22;54794;48.348;7.878;2024-02-04T18:24:25;11.30;65.90
68011;DHT22;54794;48.348;7.878;2024-02-04T18:27:38;11.40;65.90
68011;DHT22;54794;48.348;7.878;2024-02-04T18:30:12;11.40;66.00
68011;DHT22;54794;48.348;7.878;2024-02-04T18:32:46;11.20;66.00
68011;DHT22;54794;48.348;7.878;2024-02-04T18:35:16;11.20;66.00
68011;DHT22;54794;48.348;7.878;2024-02-04T18:37:51;11.40;66.20
68011;DHT22;54794;48.348;7.878;2024-02-04T18:40:24;11.10;66.10
68011;DHT22;54794;48.348;7.878;2024-02-04T18:42:59;11.20;66.10
68011;DHT22;54794;48.348;7.878;2024-02-04T18:45:26;11.20;66.20
68011;DHT22;54794;48.348;7.878;2024-02-04T18:48:16;11.10;66.10
68011;DHT22;54794;48.348;7.878;2024-02-04T18:50:56;11.10;66.20
68011;DHT22;54794;48.348;7.878;2024-02-04T18:53:34;11.10;66.20
68011;DHT22;54794;48.348;7.878;2024-02-04T18:56:24;11.00;66.10
68011;DHT22;54794;48.348;7.878;2024-02-04T18:58:57;11.40;66.30
68011;DHT22;54794;48.348;7.878;2024-02-04T19:01:26;10.70;66.00
68011;DHT22;54794;48.348;7.878;2024-02-04T19:04:30;11.00;66.20
68011;DHT22;54794;48.348;7.878;2024-02-04T19:06:58;11.00;66.30
68011;DHT22;54794;48.348;7.878;2024-02-04T19:09:38;11.00;66.30
68011;DHT22;54794;48.348;7.878;2024-02-04T19:12:21;11.30;66.50
68011;DHT22;54794;48.348;7.878;2024-02-04T19:14:55;11.00;66.40
68011;DHT22;54794;48.348;7.878;2024-02-04T19:17:37;11.00;66.40
68011;DHT22;54794;48.348;7.878;2024-02-04T19:20:11;11.00;66.30
68011;DHT22;54794;48.348;7.878;2024-02-04T19:22:59;11.00;66.30
68011;DHT22;54794;48.348;7.878;2024-02-04T19:25:39;11.20;66.40
68011;DHT22;54794;48.348;7.878;2024-02-04T19:28:12;10.90;66.30
68011;DHT22;54794;48.348;7.878;2024-02-04T19:30:45;11.00;66.30
68011;DHT22;54794;48.348;7.878;2024-02-04T19:33:18;10.90;66.30
68011;DHT22;54794;48.348;7.878;2024-02-04T19:35:50;11.00;66.40
68011;DHT22;54794;48.348;7.878;2024-02-04T19:38:29;10.80;66.30
68011;DHT22;54794;48.348;7.878;2024-02-04T19:41:02;10.90;66.40
68011;DHT22;54794;48.348;7.878;2024-02-04T19:43:34;10.90;66.30
68011;DHT22;54794;48.348;7.878;2024-02-04T19:46:16;10.90;66.30
68011;DHT22;54794;48.348;7.878;2024-02-04T19:52:17;10.80;66.30
68011;DHT22;54794;48.348;7.878;2024-02-04T19:55:05;10.90;66.30
68011;DHT22;54794;48.348;7.878;2024-02-04T19:57:40;10.90;66.30
68011;DHT22;54794;48.348;7.878;2024-02-04T20:00:19;10.90;66.30
68011;DHT22;54794;48.348;7.878;2024-02-04T20:02:52;10.90;66.30
68011;DHT22;54794;48.348;7.878;2024-02-04T20:05:45;10.60;66.10
68011;DHT22;54794;48.348;7.878;2024-02-04T20:08:12;11.00;66.30
68011;DHT22;54794;48.348;7.878;2024-02-04T20:10:48;10.90;66.30
68011;DHT22;54794;48.348;7.878;2024-02-04T20:13:20;10.90;66.20
68011;DHT22;54794;48.348;7.878;2024-02-04T20:16:04;10.70;66.10
68011;DHT22;54794;48.348;7.878;2024-02-04T20:18:42;10.80;66.10
68011;DHT22;54794;48.348;7.878;2024-02-04T20:21:22;10.80;66.20
68011;DHT22;54794;48.348;7.878;2024-02-04T20:24:14;10.90;66.20
68011;DHT22;54794;48.348;7.878;2024-02-04T20:27:02;10.80;66.20
68011;DHT22;54794;48.348;7.878;2024-02-04T20:29:53;10.80;66.10
68011;DHT22;54794;48.348;7.878;2024-02-04T20:32:33;10.70;66.10
68011;DHT22;54794;48.348;7.878;2024-02-04T20:35:08;10.70;66.10
68011;DHT22;54794;48.348;7.878;2024-02-04T20:37:38;10.70;66.10
68011;DHT22;54794;48.348;7.878;2024-02-04T20:40:10;10.60;66.10
68011;DHT22;54794;48.348;7.878;2024-02-04T20:42:43;10.60;66.10
68011;DHT22;54794;48.348;7.878;2024-02-04T20:45:13;10.80;66.30
68011;DHT22;54794;48.348;7.878;2024-02-04T20:47:43;10.50;66.10
68011;DHT22;54794;48.348;7.878;2024-02-04T20:50:25;10.80;66.40
68011;DHT22;54794;48.348;7.878;2024-02-04T20:53:00;10.50;66.20
68011;DHT22;54794;48.348;7.878;2024-02-04T20:55:30;10.80;66.30
68011;DHT22;54794;48.348;7.878;2024-02-04T20:58:08;10.40;66.20
68011;DHT22;54794;48.348;7.878;2024-02-04T21:00:42;10.70;66.40
68011;DHT22;54794;48.348;7.878;2024-02-04T21:03:10;10.40;66.30
68011;DHT22;54794;48.348;7.878;2024-02-04T21:05:40;10.40;66.30
68011;DHT22;54794;48.348;7.878;2024-02-04T21:08:11;10.90;66.70
68011;DHT22;54794;48.348;7.878;2024-02-04T21:10:39;10.80;66.60
68011;DHT22;54794;48.348;7.878;2024-02-04T21:13:09;10.30;66.40
68011;DHT22;54794;48.348;7.878;2024-02-04T21:15:36;10.00;66.20
68011;DHT22;54794;48.348;7.878;2024-02-04T21:18:06;10.10;66.30
68011;DHT22;54794;48.348;7.878;2024-02-04T21:20:37;10.00;66.30
68011;DHT22;54794;48.348;7.878;2024-02-04T21:23:11;10.20;66.50
68011;DHT22;54794;48.348;7.878;2024-02-04T21:25:48;10.30;66.60
68011;DHT22;54794;48.348;7.878;2024-02-04T21:28:26;10.20;66.60
68011;DHT22;54794;48.348;7.878;2024-02-04T21:31:21;10.20;66.60
68011;DHT22;54794;48.348;7.878;2024-02-04T21:33:54;10.20;66.70
68011;DHT22;54794;48.348;7.878;2024-02-04T21:36:27;10.30;66.70
68011;DHT22;54794;48.348;7.878;2024-02-04T21:38:54;10.40;66.90
68011;DHT22;54794;48.348;7.878;2024-02-04T21:41:26;10.50;66.90
68011;DHT22;54794;48.348;7.878;2024-02-04T21:44:02;10.20;66.90
68011;DHT22;54794;48.348;7.878;2024-02-04T21:46:52;10.20;66.90
68011;DHT22;54794;48.348;7.878;2024-02-04T21:50:12;10.20;66.90
68011;DHT22;54794;48.348;7.878;2024-02-04T21:52:50;10.30;67.00
68011;DHT22;54794;48.348;7.878;2024-02-04T21:55:44;10.20;66.90
68011;DHT22;54794;48.348;7.878;2024-02-04T21:58:26;10.30;67.10
68011;DHT22;54794;48.348;7.878;2024-02-04T22:01:32;10.20;67.00
68011;DHT22;54794;48.348;7.878;2024-02-04T22:04:05;10.00;66.80
68011;DHT22;54794;48.348;7.878;2024-02-04T22:06:45;10.10;66.90
68011;DHT22;54794;48.348;7.878;2024-02-04T22:09:37;9.70;66.70
68011;DHT22;54794;48.348;7.878;2024-02-04T22:12:29;10.10;67.00
68011;DHT22;54794;48.348;7.878;2024-02-04T22:15:09;10.10;67.20
68011;DHT22;54794;48.348;7.878;2024-02-04T22:17:43;10.10;67.20
68011;DHT22;54794;48.348;7.878;2024-02-04T22:20:11;10.20;67.20
68011;DHT22;54794;48.348;7.878;2024-02-04T22:22:39;10.00;67.30
68011;DHT22;54794;48.348;7.878;2024-02-04T22:25:07;10.10;67.30
68011;DHT22;54794;48.348;7.878;2024-02-04T22:27:46;10.10;67.30
68011;DHT22;54794;48.348;7.878;2024-02-04T22:30:37;10.40;67.60
68011;DHT22;54794;48.348;7.878;2024-02-04T22:33:19;10.10;67.40
68011;DHT22;54794;48.348;7.878;2024-02-04T22:35:48;10.20;67.40
68011;DHT22;54794;48.348;7.878;2024-02-04T22:38:23;10.70;67.60
68011;DHT22;54794;48.348;7.878;2024-02-04T22:41:09;10.50;67.50
68011;DHT22;54794;48.348;7.878;2024-02-04T22:43:51;10.10;67.40
68011;DHT22;54794;48.348;7.878;2024-02-04T22:46:26;10.30;67.60
68011;DHT22;54794;48.348;7.878;2024-02-04T22:48:56;10.30;67.40
68011;DHT22;54794;48.348;7.878;2024-02-04T22:51:29;10.10;67.30
68011;DHT22;54794;48.348;7.878;2024-02-04T22:54:15;10.10;67.40
68011;DHT22;54794;48.348;7.878;2024-02-04T22:56:53;10.30;67.60
68011;DHT22;54794;48.348;7.878;2024-02-04T22:59:28;10.10;67.50
68011;DHT22;54794;48.348;7.878;2024-02-04T23:02:08;10.60;67.70
68011;DHT22;54794;48.348;7.878;2024-02-04T23:05:00;10.40;67.70
68011;DHT22;54794;48.348;7.878;2024-02-04T23:07:34;10.70;67.70
68011;DHT22;54794;48.348;7.878;2024-02-04T23:10:27;10.10;67.30